sensor_id;sensor_type;location;lat;lon;timestamp;temperature;humidity
7214;DHT22;3648;50.614;13.830;2022-11-10T00:00:33;7.60;1.00
7214;DHT22;3648;50.614;13.830;2022-11-10T00:03:02;7.60;1.00
7214;DHT22;3648;50.614;13.830;2022-11-10T00:05:30;7.60;1.00
7214;DHT22;3648;50.614;13.830;2022-11-10T00:08:01;7.60;1.00
7214;DHT22;3648;50.614;13.830;2022-11-10T00:10:28;7.60;1.00
7214;DHT22;3648;50.614;13.830;2022-11-10T00:12:59;7.50;1.00
7214;DHT22;3648;50.614;13.830;2022-11-10T00:15:26;7.50;1.00
7214;DHT22;3648;50.614;13.830;2022-11-10T00:18:12;7.50;1.00
7214;DHT22;3648;50.614;13.830;2022-11-10T00:20:39;7.50;1.00
7214;DHT22;3648;50.614;13.830;2022-11-10T00:23:06;7.50;1.00
7214;DHT22;3648;50.614;13.830;2022-11-10T00:25:33;7.50;1.00
7214;DHT22;3648;50.614;13.830;2022-11-10T00:28:00;7.60;1.00
7214;DHT22;3648;50.614;13.830;2022-11-10T00:30:27;7.50;1.00
7214;DHT22;3648;50.614;13.830;2022-11-10T00:32:54;7.50;1.00
7214;DHT22;3648;50.614;13.830;2022-11-10T00:35:22;7.50;1.00
7214;DHT22;3648;50.614;13.830;2022-11-10T00:37:49;7.60;1.00
7214;DHT22;3648;50.614;13.830;2022-11-10T00:40:17;7.60;1.00
7214;DHT22;3648;50.614;13.830;2022-11-10T00:42:44;7.60;1.00
7214;DHT22;3648;50.614;13.830;2022-11-10T00:45:11;7.60;1.00
7214;DHT22;3648;50.614;13.830;2022-11-10T00:47:38;7.60;1.00
7214;DHT22;3648;50.614;13.830;2022-11-10T00:50:06;7.60;1.00
7214;DHT22;3648;50.614;13.830;2022-11-10T00:52:34;7.60;1.00
7214;DHT22;3648;50.614;13.830;2022-11-10T00:55:01;7.70;1.00
7214;DHT22;3648;50.614;13.830;2022-11-10T00:57:28;7.60;1.00
7214;DHT22;3648;50.614;13.830;2022-11-10T00:59:55;7.70;1.00
7214;DHT22;3648;50.614;13.830;2022-11-10T01:02:22;7.60;1.00
7214;DHT22;3648;50.614;13.830;2022-11-10T01:04:49;7.60;1.00
7214;DHT22;3648;50.614;13.830;2022-11-10T01:07:15;7.60;1.00
7214;DHT22;3648;50.614;13.830;2022-11-10T01:09:44;7.60;1.00
7214;DHT22;3648;50.614;13.830;2022-11-10T01:12:11;7.60;1.00
7214;DHT22;3648;50.614;13.830;2022-11-10T01:14:39;7.60;1.00
7214;DHT22;3648;50.614;13.830;2022-11-10T01:17:05;7.60;1.00
7214;DHT22;3648;50.614;13.830;2022-11-10T01:19:32;7.60;1.00
7214;DHT22;3648;50.614;13.830;2022-11-10T01:21:59;7.60;1.00
7214;DHT22;3648;50.614;13.830;2022-11-10T01:24:26;7.60;1.00
7214;DHT22;3648;50.614;13.830;2022-11-10T01:26:54;7.60;1.00
7214;DHT22;3648;50.614;13.830;2022-11-10T01:29:21;7.60;1.00
7214;DHT22;3648;50.614;13.830;2022-11-10T01:31:48;7.60;1.00
7214;DHT22;3648;50.614;13.830;2022-11-10T01:34:15;7.70;1.00
7214;DHT22;3648;50.614;13.830;2022-11-10T01:36:42;7.70;1.00
7214;DHT22;3648;50.614;13.830;2022-11-10T01:39:09;7.70;1.00
7214;DHT22;3648;50.614;13.830;2022-11-10T01:41:36;7.60;1.00
7214;DHT22;3648;50.614;13.830;2022-11-10T01:44:15;7.70;1.00
7214;DHT22;3648;50.614;13.830;2022-11-10T01:46:42;7.70;1.00
7214;DHT22;3648;50.614;13.830;2022-11-10T01:49:09;7.70;1.00
7214;DHT22;3648;50.614;13.830;2022-11-10T01:51:40;7.70;1.00
7214;DHT22;3648;50.614;13.830;2022-11-10T01:54:10;7.70;1.00
7214;DHT22;3648;50.614;13.830;2022-11-10T01:56:43;7.70;1.00
7214;DHT22;3648;50.614;13.830;2022-11-10T01:59:15;7.70;1.00
7214;DHT22;3648;50.614;13.830;2022-11-10T02:01:44;7.70;1.00
7214;DHT22;3648;50.614;13.830;2022-11-10T02:04:14;7.70;1.00
7214;DHT22;3648;50.614;13.830;2022-11-10T02:06:43;7.70;1.00
7214;DHT22;3648;50.614;13.830;2022-11-10T02:09:11;7.70;1.00
7214;DHT22;3648;50.614;13.830;2022-11-10T02:11:38;7.70;1.00
7214;DHT22;3648;50.614;13.830;2022-11-10T02:14:07;7.60;1.00
7214;DHT22;3648;50.614;13.830;2022-11-10T02:16:35;7.60;1.00
7214;DHT22;3648;50.614;13.830;2022-11-10T02:19:17;7.60;1.00
7214;DHT22;3648;50.614;13.830;2022-11-10T02:21:46;7.50;1.00
7214;DHT22;3648;50.614;13.830;2022-11-10T02:24:13;7.50;1.00
7214;DHT22;3648;50.614;13.830;2022-11-10T02:26:43;7.50;1.00
7214;DHT22;3648;50.614;13.830;2022-11-10T02:29:11;7.50;1.00
7214;DHT22;3648;50.614;13.830;2022-11-10T02:31:38;7.50;1.00
7214;DHT22;3648;50.614;13.830;2022-11-10T02:34:05;7.50;1.00
7214;DHT22;3648;50.614;13.830;2022-11-10T02:36:32;7.50;1.00
7214;DHT22;3648;50.614;13.830;2022-11-10T02:39:00;7.40;1.00
7214;DHT22;3648;50.614;13.830;2022-11-10T02:41:27;7.40;1.00
7214;DHT22;3648;50.614;13.830;2022-11-10T02:43:55;7.30;1.00
7214;DHT22;3648;50.614;13.830;2022-11-10T02:46:23;7.30;1.00
7214;DHT22;3648;50.614;13.830;2022-11-10T02:48:50;7.30;1.00
7214;DHT22;3648;50.614;13.830;2022-11-10T02:51:17;7.20;1.00
7214;DHT22;3648;50.614;13.830;2022-11-10T02:53:44;7.20;1.00
7214;DHT22;3648;50.614;13.830;2022-11-10T02:56:12;7.20;1.00
7214;DHT22;3648;50.614;13.830;2022-11-10T02:58:39;7.20;1.00
7214;DHT22;3648;50.614;13.830;2022-11-10T03:01:06;7.10;1.00
7214;DHT22;3648;50.614;13.830;2022-11-10T03:03:33;7.10;1.00
7214;DHT22;3648;50.614;13.830;2022-11-10T03:06:00;7.10;1.00
7214;DHT22;3648;50.614;13.830;2022-11-10T03:08:27;7.10;1.00
7214;DHT22;3648;50.614;13.830;2022-11-10T03:10:55;7.10;1.00
7214;DHT22;3648;50.614;13.830;2022-11-10T03:13:24;7.10;1.00
7214;DHT22;3648;50.614;13.830;2022-11-10T03:15:51;7.10;1.00
7214;DHT22;3648;50.614;13.830;2022-11-10T03:18:18;7.10;1.00
7214;DHT22;3648;50.614;13.830;2022-11-10T03:20:47;7.10;1.00
7214;DHT22;3648;50.614;13.830;2022-11-10T03:23:15;7.10;1.00
7214;DHT22;3648;50.614;13.830;2022-11-10T03:25:42;7.10;1.00
7214;DHT22;3648;50.614;13.830;2022-11-10T03:28:09;7.00;1.00
7214;DHT22;3648;50.614;13.830;2022-11-10T03:30:37;7.00;1.00
7214;DHT22;3648;50.614;13.830;2022-11-10T03:33:05;7.00;1.00
7214;DHT22;3648;50.614;13.830;2022-11-10T03:35:32;6.90;1.00
7214;DHT22;3648;50.614;13.830;2022-11-10T03:37:59;6.90;1.00
7214;DHT22;3648;50.614;13.830;2022-11-10T03:40:26;6.90;1.00
7214;DHT22;3648;50.614;13.830;2022-11-10T03:42:52;6.90;1.00
7214;DHT22;3648;50.614;13.830;2022-11-10T03:45:19;6.90;1.00
7214;DHT22;3648;50.614;13.830;2022-11-10T03:47:48;6.90;1.00
7214;DHT22;3648;50.614;13.830;2022-11-10T03:50:15;6.90;1.00
7214;DHT22;3648;50.614;13.830;2022-11-10T03:52:43;6.90;1.00
7214;DHT22;3648;50.614;13.830;2022-11-10T03:55:12;6.90;1.00
7214;DHT22;3648;50.614;13.830;2022-11-10T03:57:39;6.90;1.00
7214;DHT22;3648;50.614;13.830;2022-11-10T04:00:07;6.80;1.00
7214;DHT22;3648;50.614;13.830;2022-11-10T04:02:35;6.80;1.00
7214;DHT22;3648;50.614;13.830;2022-11-10T04:05:04;6.90;1.00
7214;DHT22;3648;50.614;13.830;2022-11-10T04:07:55;6.90;1.00
7214;DHT22;3648;50.614;13.830;2022-11-10T04:10:40;6.90;1.00
7214;DHT22;3648;50.614;13.830;2022-11-10T04:13:07;6.80;1.00
7214;DHT22;3648;50.614;13.830;2022-11-10T04:15:51;6.80;1.00
7214;DHT22;3648;50.614;13.830;2022-11-10T04:18:18;6.90;1.00
7214;DHT22;3648;50.614;13.830;2022-11-10T04:20:53;6.90;1.00
7214;DHT22;3648;50.614;13.830;2022-11-10T04:23:21;6.90;1.00
7214;DHT22;3648;50.614;13.830;2022-11-10T04:25:58;6.90;1.00
7214;DHT22;3648;50.614;13.830;2022-11-10T04:28:43;6.80;1.00
7214;DHT22;3648;50.614;13.830;2022-11-10T04:31:11;6.80;1.00
7214;DHT22;3648;50.614;13.830;2022-11-10T04:33:38;6.80;1.00
7214;DHT22;3648;50.614;13.830;2022-11-10T04:36:08;6.80;1.00
7214;DHT22;3648;50.614;13.830;2022-11-10T04:38:36;6.80;1.00
7214;DHT22;3648;50.614;13.830;2022-11-10T04:41:03;6.80;1.00
7214;DHT22;3648;50.614;13.830;2022-11-10T04:43:30;6.70;1.00
7214;DHT22;3648;50.614;13.830;2022-11-10T04:45:58;6.70;1.00
7214;DHT22;3648;50.614;13.830;2022-11-10T04:48:25;6.70;1.00
7214;DHT22;3648;50.614;13.830;2022-11-10T04:50:53;6.70;1.00
7214;DHT22;3648;50.614;13.830;2022-11-10T04:53:21;6.70;1.00
7214;DHT22;3648;50.614;13.830;2022-11-10T04:55:50;6.60;1.00
7214;DHT22;3648;50.614;13.830;2022-11-10T04:58:17;6.70;1.00
7214;DHT22;3648;50.614;13.830;2022-11-10T05:00:44;6.70;1.00
7214;DHT22;3648;50.614;13.830;2022-11-10T05:03:12;6.70;1.00
7214;DHT22;3648;50.614;13.830;2022-11-10T05:05:40;6.70;1.00
7214;DHT22;3648;50.614;13.830;2022-11-10T05:08:07;6.70;1.00
7214;DHT22;3648;50.614;13.830;2022-11-10T05:10:37;6.70;1.00
7214;DHT22;3648;50.614;13.830;2022-11-10T05:13:05;6.70;1.00
7214;DHT22;3648;50.614;13.830;2022-11-10T05:15:32;6.70;1.00
7214;DHT22;3648;50.614;13.830;2022-11-10T05:17:59;6.70;1.00
7214;DHT22;3648;50.614;13.830;2022-11-10T05:20:26;6.70;1.00
7214;DHT22;3648;50.614;13.830;2022-11-10T05:22:53;6.60;1.00
7214;DHT22;3648;50.614;13.830;2022-11-10T05:25:41;6.70;1.00
7214;DHT22;3648;50.614;13.830;2022-11-10T05:28:11;6.70;1.00
7214;DHT22;3648;50.614;13.830;2022-11-10T05:30:38;6.70;1.00
7214;DHT22;3648;50.614;13.830;2022-11-10T05:33:06;6.70;1.00
7214;DHT22;3648;50.614;13.830;2022-11-10T05:35:33;6.70;1.00
7214;DHT22;3648;50.614;13.830;2022-11-10T05:38:01;6.70;1.00
7214;DHT22;3648;50.614;13.830;2022-11-10T05:40:28;6.70;1.00
7214;DHT22;3648;50.614;13.830;2022-11-10T05:42:57;6.80;1.00
7214;DHT22;3648;50.614;13.830;2022-11-10T05:45:26;6.80;1.00
7214;DHT22;3648;50.614;13.830;2022-11-10T05:47:53;6.70;1.00
7214;DHT22;3648;50.614;13.830;2022-11-10T05:50:21;6.70;1.00
7214;DHT22;3648;50.614;13.830;2022-11-10T05:52:51;6.70;1.00
7214;DHT22;3648;50.614;13.830;2022-11-10T05:55:20;6.70;1.00
7214;DHT22;3648;50.614;13.830;2022-11-10T05:57:49;6.80;1.00
7214;DHT22;3648;50.614;13.830;2022-11-10T06:00:20;6.70;1.00
7214;DHT22;3648;50.614;13.830;2022-11-10T06:02:56;6.70;1.00
7214;DHT22;3648;50.614;13.830;2022-11-10T06:05:23;6.70;1.00
7214;DHT22;3648;50.614;13.830;2022-11-10T06:07:50;6.80;1.00
7214;DHT22;3648;50.614;13.830;2022-11-10T06:10:17;6.80;1.00
7214;DHT22;3648;50.614;13.830;2022-11-10T06:12:44;6.80;1.00
7214;DHT22;3648;50.614;13.830;2022-11-10T06:15:11;6.80;1.00
7214;DHT22;3648;50.614;13.830;2022-11-10T06:17:42;6.80;1.00
7214;DHT22;3648;50.614;13.830;2022-11-10T06:20:10;6.80;1.00
7214;DHT22;3648;50.614;13.830;2022-11-10T06:22:37;6.80;1.00
7214;DHT22;3648;50.614;13.830;2022-11-10T06:25:05;6.80;1.00
7214;DHT22;3648;50.614;13.830;2022-11-10T06:27:32;6.80;1.00
7214;DHT22;3648;50.614;13.830;2022-11-10T06:29:59;6.80;1.00
7214;DHT22;3648;50.614;13.830;2022-11-10T06:32:26;6.80;1.00
7214;DHT22;3648;50.614;13.830;2022-11-10T06:34:54;6.80;1.00
7214;DHT22;3648;50.614;13.830;2022-11-10T06:37:21;6.80;1.00
7214;DHT22;3648;50.614;13.830;2022-11-10T06:39:48;6.90;1.00
7214;DHT22;3648;50.614;13.830;2022-11-10T06:42:15;6.90;1.00
7214;DHT22;3648;50.614;13.830;2022-11-10T06:44:41;6.90;1.00
7214;DHT22;3648;50.614;13.830;2022-11-10T06:47:08;6.80;1.00
7214;DHT22;3648;50.614;13.830;2022-11-10T06:49:35;6.80;1.00
7214;DHT22;3648;50.614;13.830;2022-11-10T06:52:04;6.80;1.00
7214;DHT22;3648;50.614;13.830;2022-11-10T06:54:31;6.80;1.00
7214;DHT22;3648;50.614;13.830;2022-11-10T06:56:58;6.80;1.00
7214;DHT22;3648;50.614;13.830;2022-11-10T06:59:24;6.80;1.00
7214;DHT22;3648;50.614;13.830;2022-11-10T07:01:51;6.80;1.00
7214;DHT22;3648;50.614;13.830;2022-11-10T07:04:18;6.80;1.00
7214;DHT22;3648;50.614;13.830;2022-11-10T07:06:45;6.80;1.00
7214;DHT22;3648;50.614;13.830;2022-11-10T07:09:14;6.70;1.00
7214;DHT22;3648;50.614;13.830;2022-11-10T07:11:41;6.70;1.00
7214;DHT22;3648;50.614;13.830;2022-11-10T07:14:09;6.70;1.00
7214;DHT22;3648;50.614;13.830;2022-11-10T07:16:36;6.70;1.00
7214;DHT22;3648;50.614;13.830;2022-11-10T07:19:03;6.80;1.00
7214;DHT22;3648;50.614;13.830;2022-11-10T07:21:30;6.80;1.00
7214;DHT22;3648;50.614;13.830;2022-11-10T07:23:56;6.80;1.00
7214;DHT22;3648;50.614;13.830;2022-11-10T07:26:25;6.90;1.00
7214;DHT22;3648;50.614;13.830;2022-11-10T07:28:52;7.00;1.00
7214;DHT22;3648;50.614;13.830;2022-11-10T07:31:19;7.10;1.00
7214;DHT22;3648;50.614;13.830;2022-11-10T07:33:45;7.10;1.00
7214;DHT22;3648;50.614;13.830;2022-11-10T07:36:12;7.10;1.00
7214;DHT22;3648;50.614;13.830;2022-11-10T07:38:39;7.20;1.00
7214;DHT22;3648;50.614;13.830;2022-11-10T07:41:06;7.20;1.00
7214;DHT22;3648;50.614;13.830;2022-11-10T07:43:35;7.20;1.00
7214;DHT22;3648;50.614;13.830;2022-11-10T07:46:02;7.30;1.00
7214;DHT22;3648;50.614;13.830;2022-11-10T07:48:29;7.40;1.00
7214;DHT22;3648;50.614;13.830;2022-11-10T07:50:56;7.40;1.00
7214;DHT22;3648;50.614;13.830;2022-11-10T07:53:23;7.50;1.00
7214;DHT22;3648;50.614;13.830;2022-11-10T07:55:50;7.50;1.00
7214;DHT22;3648;50.614;13.830;2022-11-10T07:58:17;7.50;1.00
7214;DHT22;3648;50.614;13.830;2022-11-10T08:00:46;7.60;1.00
7214;DHT22;3648;50.614;13.830;2022-11-10T08:03:15;7.70;1.00
7214;DHT22;3648;50.614;13.830;2022-11-10T08:05:42;7.80;1.00
7214;DHT22;3648;50.614;13.830;2022-11-10T08:08:10;7.80;1.00
7214;DHT22;3648;50.614;13.830;2022-11-10T08:10:38;7.90;1.00
7214;DHT22;3648;50.614;13.830;2022-11-10T08:13:07;8.00;1.00
7214;DHT22;3648;50.614;13.830;2022-11-10T08:15:35;8.00;1.00
7214;DHT22;3648;50.614;13.830;2022-11-10T08:18:05;8.10;1.00
7214;DHT22;3648;50.614;13.830;2022-11-10T08:20:33;8.10;1.00
7214;DHT22;3648;50.614;13.830;2022-11-10T08:23:01;8.20;1.00
7214;DHT22;3648;50.614;13.830;2022-11-10T08:25:30;8.20;1.00
7214;DHT22;3648;50.614;13.830;2022-11-10T08:27:58;8.30;1.00
7214;DHT22;3648;50.614;13.830;2022-11-10T08:30:26;8.40;1.00
7214;DHT22;3648;50.614;13.830;2022-11-10T08:32:55;8.50;1.00
7214;DHT22;3648;50.614;13.830;2022-11-10T08:35:25;8.50;1.00
7214;DHT22;3648;50.614;13.830;2022-11-10T08:37:52;8.60;1.00
7214;DHT22;3648;50.614;13.830;2022-11-10T08:40:20;8.60;1.00
7214;DHT22;3648;50.614;13.830;2022-11-10T08:42:47;8.70;1.00
7214;DHT22;3648;50.614;13.830;2022-11-10T08:45:15;8.80;1.00
7214;DHT22;3648;50.614;13.830;2022-11-10T08:47:41;8.90;1.00
7214;DHT22;3648;50.614;13.830;2022-11-10T08:50:10;9.10;1.00
7214;DHT22;3648;50.614;13.830;2022-11-10T08:52:38;9.20;1.00
7214;DHT22;3648;50.614;13.830;2022-11-10T08:55:06;9.40;1.00
7214;DHT22;3648;50.614;13.830;2022-11-10T08:57:33;9.60;1.00
7214;DHT22;3648;50.614;13.830;2022-11-10T09:00:00;9.80;1.00
7214;DHT22;3648;50.614;13.830;2022-11-10T09:02:27;9.90;1.00
7214;DHT22;3648;50.614;13.830;2022-11-10T09:04:55;10.10;1.00
7214;DHT22;3648;50.614;13.830;2022-11-10T09:07:21;10.20;1.00
7214;DHT22;3648;50.614;13.830;2022-11-10T09:09:50;10.30;1.00
7214;DHT22;3648;50.614;13.830;2022-11-10T09:12:17;10.40;1.00
7214;DHT22;3648;50.614;13.830;2022-11-10T09:14:44;10.60;1.00
7214;DHT22;3648;50.614;13.830;2022-11-10T09:17:11;10.70;1.00
7214;DHT22;3648;50.614;13.830;2022-11-10T09:19:38;10.90;1.00
7214;DHT22;3648;50.614;13.830;2022-11-10T09:22:05;11.00;1.00
7214;DHT22;3648;50.614;13.830;2022-11-10T09:24:32;11.20;1.00
7214;DHT22;3648;50.614;13.830;2022-11-10T09:27:00;11.30;1.00
7214;DHT22;3648;50.614;13.830;2022-11-10T09:29:27;11.50;1.00
7214;DHT22;3648;50.614;13.830;2022-11-10T09:31:54;11.50;1.00
7214;DHT22;3648;50.614;13.830;2022-11-10T09:34:21;11.70;1.00
7214;DHT22;3648;50.614;13.830;2022-11-10T09:36:48;11.90;1.00
7214;DHT22;3648;50.614;13.830;2022-11-10T09:39:15;12.00;1.00
7214;DHT22;3648;50.614;13.830;2022-11-10T09:41:43;12.00;1.00
7214;DHT22;3648;50.614;13.830;2022-11-10T09:44:15;12.20;1.00
7214;DHT22;3648;50.614;13.830;2022-11-10T09:46:47;12.30;1.00
7214;DHT22;3648;50.614;13.830;2022-11-10T09:49:30;12.50;1.00
7214;DHT22;3648;50.614;13.830;2022-11-10T09:51:58;12.60;1.00
7214;DHT22;3648;50.614;13.830;2022-11-10T09:54:33;12.60;1.00
7214;DHT22;3648;50.614;13.830;2022-11-10T09:57:05;12.70;1.00
7214;DHT22;3648;50.614;13.830;2022-11-10T09:59:34;12.70;1.00
7214;DHT22;3648;50.614;13.830;2022-11-10T10:02:04;12.60;1.00
7214;DHT22;3648;50.614;13.830;2022-11-10T10:05:02;12.60;1.00
7214;DHT22;3648;50.614;13.830;2022-11-10T10:07:39;12.60;1.00
7214;DHT22;3648;50.614;13.830;2022-11-10T10:10:14;12.70;1.00
7214;DHT22;3648;50.614;13.830;2022-11-10T10:12:55;12.70;1.00
7214;DHT22;3648;50.614;13.830;2022-11-10T10:15:31;12.80;1.00
7214;DHT22;3648;50.614;13.830;2022-11-10T10:18:16;12.80;1.00
7214;DHT22;3648;50.614;13.830;2022-11-10T10:20:55;12.70;1.00
7214;DHT22;3648;50.614;13.830;2022-11-10T10:23:28;12.70;1.00
7214;DHT22;3648;50.614;13.830;2022-11-10T10:26:04;12.70;1.00
7214;DHT22;3648;50.614;13.830;2022-11-10T10:28:37;12.60;1.00
7214;DHT22;3648;50.614;13.830;2022-11-10T10:31:13;12.70;1.00
7214;DHT22;3648;50.614;13.830;2022-11-10T10:33:43;12.70;1.00
7214;DHT22;3648;50.614;13.830;2022-11-10T10:36:15;12.70;1.00
7214;DHT22;3648;50.614;13.830;2022-11-10T10:38:44;12.70;1.00
7214;DHT22;3648;50.614;13.830;2022-11-10T10:41:16;12.60;1.00
7214;DHT22;3648;50.614;13.830;2022-11-10T10:43:46;12.60;1.00
7214;DHT22;3648;50.614;13.830;2022-11-10T10:46:16;12.40;1.00
7214;DHT22;3648;50.614;13.830;2022-11-10T10:48:45;12.40;1.00
7214;DHT22;3648;50.614;13.830;2022-11-10T10:51:27;12.40;1.00
7214;DHT22;3648;50.614;13.830;2022-11-10T10:53:54;12.30;1.00
7214;DHT22;3648;50.614;13.830;2022-11-10T10:56:25;12.30;1.00
7214;DHT22;3648;50.614;13.830;2022-11-10T10:58:54;12.30;1.00
7214;DHT22;3648;50.614;13.830;2022-11-10T11:01:28;12.30;1.00
7214;DHT22;3648;50.614;13.830;2022-11-10T11:03:56;12.30;1.00
7214;DHT22;3648;50.614;13.830;2022-11-10T11:06:24;12.20;1.00
7214;DHT22;3648;50.614;13.830;2022-11-10T11:08:54;12.10;1.00
7214;DHT22;3648;50.614;13.830;2022-11-10T11:11:24;12.10;1.00
7214;DHT22;3648;50.614;13.830;2022-11-10T11:13:52;12.10;1.00
7214;DHT22;3648;50.614;13.830;2022-11-10T11:16:18;12.10;1.00
7214;DHT22;3648;50.614;13.830;2022-11-10T11:18:47;12.10;1.00
7214;DHT22;3648;50.614;13.830;2022-11-10T11:21:24;12.10;1.00
7214;DHT22;3648;50.614;13.830;2022-11-10T11:24:05;12.10;1.00
7214;DHT22;3648;50.614;13.830;2022-11-10T11:26:44;12.10;1.00
7214;DHT22;3648;50.614;13.830;2022-11-10T11:29:26;12.10;1.00
7214;DHT22;3648;50.614;13.830;2022-11-10T11:32:04;12.10;1.00
7214;DHT22;3648;50.614;13.830;2022-11-10T11:34:42;12.20;1.00
7214;DHT22;3648;50.614;13.830;2022-11-10T11:37:17;12.20;1.00
7214;DHT22;3648;50.614;13.830;2022-11-10T11:39:55;12.30;1.00
7214;DHT22;3648;50.614;13.830;2022-11-10T11:42:36;12.40;1.00
7214;DHT22;3648;50.614;13.830;2022-11-10T11:45:15;12.40;1.00
7214;DHT22;3648;50.614;13.830;2022-11-10T11:48:04;12.50;1.00
7214;DHT22;3648;50.614;13.830;2022-11-10T11:50:42;12.50;1.00
7214;DHT22;3648;50.614;13.830;2022-11-10T11:53:26;12.50;1.00
7214;DHT22;3648;50.614;13.830;2022-11-10T11:56:04;12.40;1.00
7214;DHT22;3648;50.614;13.830;2022-11-10T11:58:42;12.50;1.00
7214;DHT22;3648;50.614;13.830;2022-11-10T12:01:36;12.40;1.00
7214;DHT22;3648;50.614;13.830;2022-11-10T12:07:14;12.50;1.00
7214;DHT22;3648;50.614;13.830;2022-11-10T12:09:48;12.50;1.00
7214;DHT22;3648;50.614;13.830;2022-11-10T12:12:36;12.50;1.00
7214;DHT22;3648;50.614;13.830;2022-11-10T12:15:20;12.40;1.00
7214;DHT22;3648;50.614;13.830;2022-11-10T12:17:57;12.40;1.00
7214;DHT22;3648;50.614;13.830;2022-11-10T12:20:34;12.40;1.00
7214;DHT22;3648;50.614;13.830;2022-11-10T12:23:09;12.40;1.00
7214;DHT22;3648;50.614;13.830;2022-11-10T12:25:46;12.40;1.00
7214;DHT22;3648;50.614;13.830;2022-11-10T12:28:17;12.40;1.00
7214;DHT22;3648;50.614;13.830;2022-11-10T12:30:50;12.40;1.00
7214;DHT22;3648;50.614;13.830;2022-11-10T12:33:33;12.40;1.00
7214;DHT22;3648;50.614;13.830;2022-11-10T12:36:03;12.40;1.00
7214;DHT22;3648;50.614;13.830;2022-11-10T12:38:41;12.40;1.00
7214;DHT22;3648;50.614;13.830;2022-11-10T12:41:11;12.40;1.00
7214;DHT22;3648;50.614;13.830;2022-11-10T12:43:46;12.40;1.00
7214;DHT22;3648;50.614;13.830;2022-11-10T12:46:15;12.40;1.00
7214;DHT22;3648;50.614;13.830;2022-11-10T12:48:52;12.40;1.00
7214;DHT22;3648;50.614;13.830;2022-11-10T12:51:23;12.40;1.00
7214;DHT22;3648;50.614;13.830;2022-11-10T12:53:54;12.40;1.00
7214;DHT22;3648;50.614;13.830;2022-11-10T12:56:24;12.40;1.00
7214;DHT22;3648;50.614;13.830;2022-11-10T13:02:02;12.40;1.00
7214;DHT22;3648;50.614;13.830;2022-11-10T13:04:29;12.40;1.00
7214;DHT22;3648;50.614;13.830;2022-11-10T13:06:58;12.30;1.00
7214;DHT22;3648;50.614;13.830;2022-11-10T13:09:29;12.30;1.00
7214;DHT22;3648;50.614;13.830;2022-11-10T13:12:15;12.30;1.00
7214;DHT22;3648;50.614;13.830;2022-11-10T13:14:43;12.20;1.00
7214;DHT22;3648;50.614;13.830;2022-11-10T13:20:49;12.10;1.00
7214;DHT22;3648;50.614;13.830;2022-11-10T13:23:23;12.00;1.00
7214;DHT22;3648;50.614;13.830;2022-11-10T13:25:58;12.00;1.00
7214;DHT22;3648;50.614;13.830;2022-11-10T13:29:00;11.90;1.00
7214;DHT22;3648;50.614;13.830;2022-11-10T13:31:46;11.90;1.00
7214;DHT22;3648;50.614;13.830;2022-11-10T13:34:30;11.80;1.00
7214;DHT22;3648;50.614;13.830;2022-11-10T13:36:57;11.80;1.00
7214;DHT22;3648;50.614;13.830;2022-11-10T13:39:27;11.70;1.00
7214;DHT22;3648;50.614;13.830;2022-11-10T13:41:59;11.70;1.00
7214;DHT22;3648;50.614;13.830;2022-11-10T13:44:27;11.70;1.00
7214;DHT22;3648;50.614;13.830;2022-11-10T13:47:10;11.70;1.00
7214;DHT22;3648;50.614;13.830;2022-11-10T13:49:48;11.70;1.00
7214;DHT22;3648;50.614;13.830;2022-11-10T13:52:19;11.60;1.00
7214;DHT22;3648;50.614;13.830;2022-11-10T13:55:14;11.60;1.00
7214;DHT22;3648;50.614;13.830;2022-11-10T13:57:59;11.70;1.00
7214;DHT22;3648;50.614;13.830;2022-11-10T14:00:29;11.70;1.00
7214;DHT22;3648;50.614;13.830;2022-11-10T14:02:57;11.70;1.00
7214;DHT22;3648;50.614;13.830;2022-11-10T14:08:37;11.70;1.00
7214;DHT22;3648;50.614;13.830;2022-11-10T14:11:13;11.70;1.00
7214;DHT22;3648;50.614;13.830;2022-11-10T14:13:45;11.70;1.00
7214;DHT22;3648;50.614;13.830;2022-11-10T14:16:17;11.70;1.00
7214;DHT22;3648;50.614;13.830;2022-11-10T14:18:48;11.70;1.00
7214;DHT22;3648;50.614;13.830;2022-11-10T14:21:22;11.70;1.00
7214;DHT22;3648;50.614;13.830;2022-11-10T14:23:54;11.60;1.00
7214;DHT22;3648;50.614;13.830;2022-11-10T14:26:26;11.60;1.00
7214;DHT22;3648;50.614;13.830;2022-11-10T14:28:55;11.60;1.00
7214;DHT22;3648;50.614;13.830;2022-11-10T14:31:24;11.60;1.00
7214;DHT22;3648;50.614;13.830;2022-11-10T14:33:53;11.50;1.00
7214;DHT22;3648;50.614;13.830;2022-11-10T14:36:20;11.50;1.00
7214;DHT22;3648;50.614;13.830;2022-11-10T14:38:48;11.50;1.00
7214;DHT22;3648;50.614;13.830;2022-11-10T14:41:17;11.50;1.00
7214;DHT22;3648;50.614;13.830;2022-11-10T14:43:59;11.50;1.00
7214;DHT22;3648;50.614;13.830;2022-11-10T14:46:26;11.50;1.00
7214;DHT22;3648;50.614;13.830;2022-11-10T14:48:58;11.40;1.00
7214;DHT22;3648;50.614;13.830;2022-11-10T14:51:27;11.40;1.00
7214;DHT22;3648;50.614;13.830;2022-11-10T14:53:55;11.40;1.00
7214;DHT22;3648;50.614;13.830;2022-11-10T14:56:26;11.30;1.00
7214;DHT22;3648;50.614;13.830;2022-11-10T14:58:55;11.20;1.00
7214;DHT22;3648;50.614;13.830;2022-11-10T15:01:27;11.20;1.00
7214;DHT22;3648;50.614;13.830;2022-11-10T15:03:58;11.20;1.00
7214;DHT22;3648;50.614;13.830;2022-11-10T15:06:26;11.10;1.00
7214;DHT22;3648;50.614;13.830;2022-11-10T15:08:53;11.00;1.00
7214;DHT22;3648;50.614;13.830;2022-11-10T15:11:34;11.00;1.00
7214;DHT22;3648;50.614;13.830;2022-11-10T15:14:03;11.00;1.00
7214;DHT22;3648;50.614;13.830;2022-11-10T15:16:32;10.90;1.00
7214;DHT22;3648;50.614;13.830;2022-11-10T15:19:20;10.80;1.00
7214;DHT22;3648;50.614;13.830;2022-11-10T15:21:48;10.80;1.00
7214;DHT22;3648;50.614;13.830;2022-11-10T15:24:15;10.70;1.00
7214;DHT22;3648;50.614;13.830;2022-11-10T15:26:43;10.70;1.00
7214;DHT22;3648;50.614;13.830;2022-11-10T15:29:19;10.60;1.00
7214;DHT22;3648;50.614;13.830;2022-11-10T15:31:49;10.60;1.00
7214;DHT22;3648;50.614;13.830;2022-11-10T15:34:38;10.50;1.00
7214;DHT22;3648;50.614;13.830;2022-11-10T15:37:21;10.50;1.00
7214;DHT22;3648;50.614;13.830;2022-11-10T15:39:48;10.40;1.00
7214;DHT22;3648;50.614;13.830;2022-11-10T15:42:17;10.40;1.00
7214;DHT22;3648;50.614;13.830;2022-11-10T15:44:46;10.40;1.00
7214;DHT22;3648;50.614;13.830;2022-11-10T15:47:16;10.50;1.00
7214;DHT22;3648;50.614;13.830;2022-11-10T15:49:46;10.50;1.00
7214;DHT22;3648;50.614;13.830;2022-11-10T15:52:16;10.50;1.00
7214;DHT22;3648;50.614;13.830;2022-11-10T15:54:44;10.50;1.00
7214;DHT22;3648;50.614;13.830;2022-11-10T15:57:13;10.50;1.00
7214;DHT22;3648;50.614;13.830;2022-11-10T15:59:41;10.40;1.00
7214;DHT22;3648;50.614;13.830;2022-11-10T16:02:18;10.40;1.00
7214;DHT22;3648;50.614;13.830;2022-11-10T16:04:46;10.40;1.00
7214;DHT22;3648;50.614;13.830;2022-11-10T16:07:14;10.40;1.00
7214;DHT22;3648;50.614;13.830;2022-11-10T16:09:41;10.40;1.00
7214;DHT22;3648;50.614;13.830;2022-11-10T16:12:12;10.30;1.00
7214;DHT22;3648;50.614;13.830;2022-11-10T16:14:41;10.30;1.00
7214;DHT22;3648;50.614;13.830;2022-11-10T16:17:10;10.30;1.00
7214;DHT22;3648;50.614;13.830;2022-11-10T16:19:39;10.20;1.00
7214;DHT22;3648;50.614;13.830;2022-11-10T16:22:08;10.20;1.00
7214;DHT22;3648;50.614;13.830;2022-11-10T16:24:35;10.20;1.00
7214;DHT22;3648;50.614;13.830;2022-11-10T16:27:03;10.20;1.00
7214;DHT22;3648;50.614;13.830;2022-11-10T16:29:31;10.10;1.00
7214;DHT22;3648;50.614;13.830;2022-11-10T16:31:58;10.10;1.00
7214;DHT22;3648;50.614;13.830;2022-11-10T16:34:25;10.10;1.00
7214;DHT22;3648;50.614;13.830;2022-11-10T16:36:54;10.00;1.00
7214;DHT22;3648;50.614;13.830;2022-11-10T16:39:21;10.00;1.00
7214;DHT22;3648;50.614;13.830;2022-11-10T16:41:48;10.00;1.00